createdAt,value
2017-05-03T00:00:14.675Z,1011.26
2017-05-03T00:00:40.808Z,1011.28
2017-05-03T00:01:07.589Z,1011.27
2017-05-03T00:01:33.643Z,1011.25
2017-05-03T00:01:59.770Z,1011.29
2017-05-03T00:02:25.904Z,1011.25
2017-05-03T00:02:52.040Z,1011.32
2017-05-03T00:03:18.162Z,1011.3
2017-05-03T00:03:44.294Z,1011.28
2017-05-03T00:04:10.407Z,1011.32
2017-05-03T00:04:36.552Z,1011.32
2017-05-03T00:05:02.712Z,1011.32
2017-05-03T00:05:29.143Z,1011.31
2017-05-03T00:05:55.250Z,1011.29
2017-05-03T00:06:21.337Z,1011.34
2017-05-03T00:06:47.435Z,1011.33
2017-05-03T00:07:13.568Z,1011.27
2017-05-03T00:07:39.682Z,1011.33
2017-05-03T00:08:05.803Z,1011.3
2017-05-03T00:08:31.935Z,1011.3
2017-05-03T00:08:58.051Z,1011.3
2017-05-03T00:09:24.188Z,1011.31
2017-05-03T00:09:50.674Z,1011.31
2017-05-03T00:10:16.796Z,1011.3
2017-05-03T00:10:43.593Z,1011.28
2017-05-03T00:11:09.678Z,1011.33
2017-05-03T00:11:35.769Z,1011.29
2017-05-03T00:12:01.900Z,1011.28
2017-05-03T00:12:27.992Z,1011.31
2017-05-03T00:12:54.082Z,1011.3
2017-05-03T00:13:20.246Z,1011.27
2017-05-03T00:13:46.370Z,1011.28
2017-05-03T00:14:12.539Z,1011.27
2017-05-03T00:14:38.699Z,1011.28
2017-05-03T00:15:05.521Z,1011.27
2017-05-03T00:15:31.609Z,1011.31
2017-05-03T00:15:57.709Z,1011.25
2017-05-03T00:16:23.844Z,1011.28
2017-05-03T00:16:49.960Z,1011.3
2017-05-03T00:17:16.056Z,1011.31
2017-05-03T00:17:42.172Z,1011.3
2017-05-03T00:18:08.386Z,1011.3
2017-05-03T00:18:34.896Z,1011.26
2017-05-03T00:19:01.011Z,1011.28
2017-05-03T00:19:27.695Z,1011.31
2017-05-03T00:19:53.799Z,1011.32
2017-05-03T00:20:19.911Z,1011.29
2017-05-03T00:20:46.037Z,1011.31
2017-05-03T00:21:12.167Z,1011.34
2017-05-03T00:21:38.257Z,1011.33
2017-05-03T00:22:04.352Z,1011.32
2017-05-03T00:22:30.841Z,1011.3
2017-05-03T00:22:56.873Z,1011.33
2017-05-03T00:23:22.962Z,1011.35
2017-05-03T00:23:49.071Z,1011.32
2017-05-03T00:24:15.193Z,1011.37
2017-05-03T00:24:41.284Z,1011.34
2017-05-03T00:25:07.417Z,1011.38
2017-05-03T00:25:33.515Z,1011.36
2017-05-03T00:25:59.714Z,1011.33
2017-05-03T00:26:25.819Z,1011.32
2017-05-03T00:26:51.981Z,1011.31
2017-05-03T00:27:18.090Z,1011.31
2017-05-03T00:27:44.190Z,1011.35
2017-05-03T00:28:10.311Z,1011.36
2017-05-03T00:28:36.471Z,1011.31
2017-05-03T00:29:02.898Z,1011.34
2017-05-03T00:29:29.059Z,1011.3
2017-05-03T00:29:55.208Z,1011.31
2017-05-03T00:30:21.343Z,1011.33
2017-05-03T00:30:47.428Z,1011.31
2017-05-03T00:31:13.526Z,1011.29
2017-05-03T00:31:39.632Z,1011.34
2017-05-03T00:32:05.720Z,1011.32
2017-05-03T00:32:32.464Z,1011.29
2017-05-03T00:32:58.594Z,1011.29
2017-05-03T00:33:24.685Z,1011.28
2017-05-03T00:33:50.843Z,1011.26
2017-05-03T00:34:16.930Z,1011.3
2017-05-03T00:34:43.057Z,1011.27
2017-05-03T00:35:09.160Z,1011.26
2017-05-03T00:35:35.964Z,1011.29
2017-05-03T00:36:02.107Z,1011.26
2017-05-03T00:36:28.238Z,1011.27
2017-05-03T00:36:54.356Z,1011.29
2017-05-03T00:37:20.445Z,1011.28
2017-05-03T00:37:46.947Z,1011.27
2017-05-03T00:38:13.068Z,1011.27
2017-05-03T00:38:40.051Z,1011.31
2017-05-03T00:39:06.096Z,1011.26
2017-05-03T00:39:32.234Z,1011.31
2017-05-03T00:39:58.370Z,1011.3
2017-05-03T00:40:24.535Z,1011.32
2017-05-03T00:40:51.050Z,1011.32
2017-05-03T00:41:17.093Z,1011.31
2017-05-03T00:41:43.189Z,1011.31
2017-05-03T00:42:09.276Z,1011.31
2017-05-03T00:42:35.407Z,1011.31
2017-05-03T00:43:01.592Z,1011.34
2017-05-03T00:43:27.757Z,1011.35
2017-05-03T00:43:53.911Z,1011.35
2017-05-03T00:44:21.099Z,1011.35
2017-05-03T00:44:47.185Z,1011.35
2017-05-03T00:45:13.284Z,1011.35
2017-05-03T00:45:39.389Z,1011.34
2017-05-03T00:46:05.477Z,1011.32
2017-05-03T00:46:31.911Z,1011.34
2017-05-03T00:46:58.043Z,1011.32
2017-05-03T00:47:24.137Z,1011.33
2017-05-03T00:47:50.224Z,1011.33
2017-05-03T00:48:16.367Z,1011.32
2017-05-03T00:48:42.538Z,1011.32
2017-05-03T00:49:08.725Z,1011.34
2017-05-03T00:49:35.519Z,1011.32
2017-05-03T00:50:01.669Z,1011.29
2017-05-03T00:50:27.769Z,1011.31
2017-05-03T00:50:53.889Z,1011.32
2017-05-03T00:51:20.006Z,1011.33
2017-05-03T00:51:46.253Z,1011.33
2017-05-03T00:52:12.377Z,1011.33
2017-05-03T00:52:38.465Z,1011.33
2017-05-03T00:53:04.624Z,1011.28
2017-05-03T00:53:30.724Z,1011.31
2017-05-03T00:53:57.192Z,1011.3
2017-05-03T00:54:23.315Z,1011.33
2017-05-03T00:54:49.422Z,1011.34
2017-05-03T00:55:15.557Z,1011.29
2017-05-03T00:55:41.681Z,1011.32
2017-05-03T00:56:08.171Z,1011.33
2017-05-03T00:56:34.304Z,1011.35
2017-05-03T00:57:00.405Z,1011.31
2017-05-03T00:57:26.518Z,1011.31
2017-05-03T00:57:52.646Z,1011.34
2017-05-03T00:58:18.782Z,1011.28
2017-05-03T00:58:44.892Z,1011.32
2017-05-03T00:59:10.993Z,1011.32
2017-05-03T00:59:37.152Z,1011.31
2017-05-03T01:00:03.268Z,1011.28
2017-05-03T01:00:29.435Z,1011.3
2017-05-03T01:00:55.567Z,1011.35
2017-05-03T01:01:21.658Z,1011.3
2017-05-03T01:01:47.763Z,1011.36
2017-05-03T01:02:13.895Z,1011.32
2017-05-03T01:02:40.394Z,1011.31
2017-05-03T01:03:06.526Z,1011.31
2017-05-03T01:03:32.616Z,1011.34
2017-05-03T01:03:58.765Z,1011.31
2017-05-03T01:04:24.897Z,1011.32
2017-05-03T01:04:51.390Z,1011.3
2017-05-03T01:05:17.527Z,1011.31
2017-05-03T01:05:43.663Z,1011.32
2017-05-03T01:06:09.784Z,1011.27
2017-05-03T01:06:35.873Z,1011.3
2017-05-03T01:07:02.349Z,1011.28
2017-05-03T01:07:28.448Z,1011.29
2017-05-03T01:07:54.609Z,1011.28
2017-05-03T01:08:20.737Z,1011.29
2017-05-03T01:08:46.926Z,1011.27
2017-05-03T01:09:13.035Z,1011.26
2017-05-03T01:09:39.159Z,1011.26
2017-05-03T01:10:05.290Z,1011.26
2017-05-03T01:10:31.719Z,1011.23
2017-05-03T01:10:57.841Z,1011.24
2017-05-03T01:11:23.972Z,1011.23
2017-05-03T01:11:50.063Z,1011.23
2017-05-03T01:12:16.153Z,1011.26
2017-05-03T01:12:42.577Z,1011.25
2017-05-03T01:13:08.756Z,1011.25
2017-05-03T01:13:34.919Z,1011.24
2017-05-03T01:14:01.087Z,1011.23
2017-05-03T01:14:27.231Z,1011.23
2017-05-03T01:14:54.177Z,1011.27
2017-05-03T01:15:20.296Z,1011.26
2017-05-03T01:15:46.412Z,1011.21
2017-05-03T01:16:12.571Z,1011.25
2017-05-03T01:16:38.723Z,1011.22
2017-05-03T01:17:04.861Z,1011.24
2017-05-03T01:17:30.998Z,1011.22
2017-05-03T01:17:57.536Z,1011.25
2017-05-03T01:18:23.684Z,1011.24
2017-05-03T01:18:49.804Z,1011.27
2017-05-03T01:19:15.919Z,1011.25
2017-05-03T01:19:42.079Z,1011.3
2017-05-03T01:20:08.518Z,1011.26
2017-05-03T01:20:34.607Z,1011.22
2017-05-03T01:21:00.740Z,1011.22
2017-05-03T01:21:26.842Z,1011.27
2017-05-03T01:21:52.927Z,1011.28
2017-05-03T01:22:20.003Z,1011.26
2017-05-03T01:22:46.105Z,1011.26
2017-05-03T01:23:12.191Z,1011.28
2017-05-03T01:23:38.366Z,1011.27
2017-05-03T01:24:04.508Z,1011.27
2017-05-03T01:24:30.666Z,1011.31
2017-05-03T01:24:56.769Z,1011.32
2017-05-03T01:25:22.877Z,1011.31
2017-05-03T01:25:49.326Z,1011.28
2017-05-03T01:26:15.433Z,1011.24
2017-05-03T01:26:41.567Z,1011.36
2017-05-03T01:27:07.715Z,1011.28
2017-05-03T01:27:33.820Z,1011.32
2017-05-03T01:27:59.933Z,1011.33
2017-05-03T01:28:26.056Z,1011.33
2017-05-03T01:28:52.654Z,1011.32
2017-05-03T01:29:18.782Z,1011.31
2017-05-03T01:29:44.941Z,1011.33
2017-05-03T01:30:11.026Z,1011.33
2017-05-03T01:30:37.125Z,1011.34
2017-05-03T01:31:03.848Z,1011.33
2017-05-03T01:31:29.902Z,1011.28
2017-05-03T01:31:55.997Z,1011.33
2017-05-03T01:32:22.098Z,1011.32
2017-05-03T01:32:48.191Z,1011.35
2017-05-03T01:33:14.356Z,1011.32
2017-05-03T01:33:40.574Z,1011.32
2017-05-03T01:34:06.694Z,1011.34
2017-05-03T01:34:33.360Z,1011.33
2017-05-03T01:34:59.463Z,1011.32
2017-05-03T01:35:25.555Z,1011.37
2017-05-03T01:35:51.664Z,1011.33
2017-05-03T01:36:17.805Z,1011.35
2017-05-03T01:36:43.920Z,1011.38
2017-05-03T01:37:10.055Z,1011.38
2017-05-03T01:37:36.150Z,1011.4
2017-05-03T01:38:02.789Z,1011.37
2017-05-03T01:38:28.921Z,1011.38
2017-05-03T01:38:55.164Z,1011.4
2017-05-03T01:39:21.314Z,1011.38
2017-05-03T01:39:47.429Z,1011.41
2017-05-03T01:40:13.534Z,1011.42
2017-05-03T01:40:39.626Z,1011.43
2017-05-03T01:41:05.748Z,1011.41
2017-05-03T01:41:31.889Z,1011.46
2017-05-03T01:41:57.993Z,1011.43
2017-05-03T01:42:24.457Z,1011.43
2017-05-03T01:42:50.546Z,1011.5
2017-05-03T01:43:16.670Z,1011.44
2017-05-03T01:43:42.803Z,1011.45
2017-05-03T01:44:08.939Z,1011.49
2017-05-03T01:44:35.086Z,1011.47
2017-05-03T01:45:01.277Z,1011.49
2017-05-03T01:45:27.505Z,1011.5
2017-05-03T01:45:53.601Z,1011.5
2017-05-03T01:46:19.696Z,1011.46
2017-05-03T01:46:46.201Z,1011.47
2017-05-03T01:47:12.365Z,1011.44
2017-05-03T01:47:38.475Z,1011.47
2017-05-03T01:48:04.650Z,1011.44
2017-05-03T01:48:30.783Z,1011.48
2017-05-03T01:48:56.951Z,1011.45
2017-05-03T01:49:23.096Z,1011.47
2017-05-03T01:49:49.255Z,1011.48
2017-05-03T01:50:15.725Z,1011.47
2017-05-03T01:50:41.867Z,1011.49
2017-05-03T01:51:08.001Z,1011.48
2017-05-03T01:51:34.166Z,1011.47
2017-05-03T01:52:00.235Z,1011.46
2017-05-03T01:52:26.338Z,1011.52
2017-05-03T01:52:52.437Z,1011.45
2017-05-03T01:53:18.528Z,1011.49
2017-05-03T01:53:44.686Z,1011.5
2017-05-03T01:54:10.845Z,1011.48
2017-05-03T01:54:37.490Z,1011.49
2017-05-03T01:55:03.642Z,1011.48
2017-05-03T01:55:30.219Z,1011.48
2017-05-03T01:55:56.251Z,1011.51
2017-05-03T01:56:22.372Z,1011.51
2017-05-03T01:56:48.505Z,1011.51
2017-05-03T01:57:14.596Z,1011.54
2017-05-03T01:57:40.700Z,1011.55
2017-05-03T01:58:06.810Z,1011.5
2017-05-03T01:58:32.937Z,1011.49
2017-05-03T01:58:59.940Z,1011.47
2017-05-03T01:59:26.054Z,1011.52
2017-05-03T01:59:52.150Z,1011.51
2017-05-03T02:00:18.650Z,1011.51
2017-05-03T02:00:44.770Z,1011.49
2017-05-03T02:01:10.945Z,1011.53
2017-05-03T02:01:37.053Z,1011.55
2017-05-03T02:02:03.172Z,1011.51
2017-05-03T02:02:29.288Z,1011.53
2017-05-03T02:02:55.417Z,1011.51
2017-05-03T02:03:21.532Z,1011.52
2017-05-03T02:03:47.693Z,1011.53
2017-05-03T02:04:13.839Z,1011.54
2017-05-03T02:04:39.979Z,1011.5
2017-05-03T02:05:06.087Z,1011.48
2017-05-03T02:05:32.607Z,1011.5
2017-05-03T02:05:58.658Z,1011.5
2017-05-03T02:06:24.789Z,1011.51
2017-05-03T02:06:51.263Z,1011.5
2017-05-03T02:07:17.374Z,1011.49
2017-05-03T02:07:43.472Z,1011.51
2017-05-03T02:08:09.662Z,1011.5
2017-05-03T02:08:35.778Z,1011.53
2017-05-03T02:09:01.958Z,1011.53
2017-05-03T02:09:28.070Z,1011.52
2017-05-03T02:09:54.203Z,1011.49
2017-05-03T02:10:20.301Z,1011.51
2017-05-03T02:10:46.437Z,1011.53
2017-05-03T02:11:12.591Z,1011.51
2017-05-03T02:11:38.697Z,1011.5
2017-05-03T02:12:04.811Z,1011.57
2017-05-03T02:12:30.909Z,1011.5
2017-05-03T02:12:57.068Z,1011.47
2017-05-03T02:13:24.462Z,1011.52
2017-05-03T02:13:50.519Z,1011.48
2017-05-03T02:14:16.614Z,1011.5
2017-05-03T02:14:43.171Z,1011.51
2017-05-03T02:15:09.331Z,1011.46
2017-05-03T02:15:35.417Z,1011.49
2017-05-03T02:16:01.519Z,1011.48
2017-05-03T02:16:27.623Z,1011.45
2017-05-03T02:16:53.711Z,1011.44
2017-05-03T02:17:19.832Z,1011.42
2017-05-03T02:17:45.936Z,1011.41
2017-05-03T02:18:12.060Z,1011.46
2017-05-03T02:18:38.198Z,1011.44
2017-05-03T02:19:04.387Z,1011.45
2017-05-03T02:19:30.506Z,1011.46
2017-05-03T02:19:56.637Z,1011.44
2017-05-03T02:20:22.750Z,1011.43
2017-05-03T02:20:48.900Z,1011.45
2017-05-03T02:21:15.002Z,1011.45
2017-05-03T02:21:41.093Z,1011.43
2017-05-03T02:22:07.185Z,1011.41
2017-05-03T02:22:33.318Z,1011.45
2017-05-03T02:22:59.438Z,1011.44
2017-05-03T02:23:25.529Z,1011.47
2017-05-03T02:23:51.713Z,1011.41
2017-05-03T02:24:17.838Z,1011.45
2017-05-03T02:24:43.953Z,1011.44
2017-05-03T02:25:10.055Z,1011.43
2017-05-03T02:25:36.167Z,1011.47
2017-05-03T02:26:02.303Z,1011.43
2017-05-03T02:26:28.426Z,1011.44
2017-05-03T02:26:54.514Z,1011.45
2017-05-03T02:27:20.647Z,1011.43
2017-05-03T02:27:46.800Z,1011.44
2017-05-03T02:28:12.914Z,1011.44
2017-05-03T02:28:39.067Z,1011.44
2017-05-03T02:29:05.198Z,1011.43
2017-05-03T02:29:31.731Z,1011.44
2017-05-03T02:29:57.907Z,1011.44
2017-05-03T02:30:24.488Z,1011.46
2017-05-03T02:30:50.577Z,1011.43
2017-05-03T02:31:16.680Z,1011.46
2017-05-03T02:31:43.220Z,1011.44
2017-05-03T02:32:09.348Z,1011.42
2017-05-03T02:32:35.974Z,1011.46
2017-05-03T02:33:02.074Z,1011.45
2017-05-03T02:33:28.224Z,1011.45
2017-05-03T02:33:54.781Z,1011.43
2017-05-03T02:34:20.869Z,1011.47
2017-05-03T02:34:46.986Z,1011.45
2017-05-03T02:35:13.188Z,1011.44
2017-05-03T02:35:39.282Z,1011.47
2017-05-03T02:36:05.797Z,1011.45
2017-05-03T02:36:31.931Z,1011.47
2017-05-03T02:36:58.027Z,1011.48
2017-05-03T02:37:24.548Z,1011.46
2017-05-03T02:37:50.682Z,1011.49
2017-05-03T02:38:17.276Z,1011.48
2017-05-03T02:38:43.302Z,1011.45
2017-05-03T02:39:09.507Z,1011.47
2017-05-03T02:39:36.071Z,1011.5
2017-05-03T02:40:02.181Z,1011.47
2017-05-03T02:40:28.305Z,1011.48
2017-05-03T02:40:54.876Z,1011.47
2017-05-03T02:41:20.967Z,1011.48
2017-05-03T02:41:47.509Z,1011.52
2017-05-03T02:42:13.631Z,1011.48
2017-05-03T02:42:42.980Z,1011.46
2017-05-03T02:43:09.142Z,1011.47
2017-05-03T02:43:35.303Z,1011.48
2017-05-03T02:44:01.429Z,1011.48
2017-05-03T02:44:27.589Z,1011.5
2017-05-03T02:44:53.708Z,1011.5
2017-05-03T02:45:19.854Z,1011.5
2017-05-03T02:45:45.960Z,1011.46
2017-05-03T02:46:12.052Z,1011.49
2017-05-03T02:46:38.143Z,1011.49
2017-05-03T02:47:04.278Z,1011.5
2017-05-03T02:47:30.400Z,1011.5
2017-05-03T02:47:56.580Z,1011.55
2017-05-03T02:48:22.724Z,1011.49
2017-05-03T02:48:48.922Z,1011.51
2017-05-03T02:49:15.110Z,1011.53
2017-05-03T02:49:41.687Z,1011.5
2017-05-03T02:50:07.738Z,1011.54
2017-05-03T02:50:33.846Z,1011.54
2017-05-03T02:51:00.352Z,1011.57
2017-05-03T02:51:26.442Z,1011.54
2017-05-03T02:51:52.575Z,1011.56
2017-05-03T02:52:19.128Z,1011.54
2017-05-03T02:52:45.269Z,1011.54
2017-05-03T02:53:11.782Z,1011.56
2017-05-03T02:53:37.952Z,1011.53
2017-05-03T02:54:04.225Z,1011.53
2017-05-03T02:54:30.481Z,1011.53
2017-05-03T02:54:56.573Z,1011.55
2017-05-03T02:55:23.348Z,1011.53
2017-05-03T02:55:49.415Z,1011.51
2017-05-03T02:56:15.502Z,1011.52
2017-05-03T02:56:42.251Z,1011.5
2017-05-03T02:57:08.384Z,1011.5
2017-05-03T02:57:34.468Z,1011.49
2017-05-03T02:58:01.716Z,1011.53
2017-05-03T02:58:27.847Z,1011.5
2017-05-03T02:58:54.563Z,1011.53
2017-05-03T02:59:20.693Z,1011.51
2017-05-03T02:59:46.806Z,1011.52
2017-05-03T03:00:13.195Z,1011.48
2017-05-03T03:00:39.301Z,1011.53
2017-05-03T03:01:05.388Z,1011.55
2017-05-03T03:01:31.485Z,1011.53
2017-05-03T03:01:57.591Z,1011.54
2017-05-03T03:02:23.681Z,1011.54
2017-05-03T03:02:49.778Z,1011.51
2017-05-03T03:03:15.913Z,1011.51
2017-05-03T03:03:42.119Z,1011.56
2017-05-03T03:04:08.233Z,1011.57
2017-05-03T03:04:34.914Z,1011.56
2017-05-03T03:05:00.952Z,1011.56
2017-05-03T03:05:27.084Z,1011.58
2017-05-03T03:05:53.731Z,1011.57
2017-05-03T03:06:19.827Z,1011.5
2017-05-03T03:06:45.931Z,1011.52
2017-05-03T03:07:12.081Z,1011.55
2017-05-03T03:07:38.193Z,1011.54
2017-05-03T03:08:04.358Z,1011.56
2017-05-03T03:08:30.508Z,1011.56
2017-05-03T03:08:56.646Z,1011.56
2017-05-03T03:09:22.805Z,1011.58
2017-05-03T03:09:48.959Z,1011.57
2017-05-03T03:10:15.105Z,1011.6
2017-05-03T03:10:41.223Z,1011.58
2017-05-03T03:11:07.313Z,1011.57
2017-05-03T03:11:33.428Z,1011.56
2017-05-03T03:11:59.546Z,1011.59
2017-05-03T03:12:25.683Z,1011.58
2017-05-03T03:12:51.902Z,1011.65
2017-05-03T03:13:18.029Z,1011.63
2017-05-03T03:13:44.609Z,1011.62
2017-05-03T03:14:10.694Z,1011.63
2017-05-03T03:14:36.855Z,1011.63
2017-05-03T03:15:02.988Z,1011.62
2017-05-03T03:15:29.113Z,1011.62
2017-05-03T03:15:55.204Z,1011.61
2017-05-03T03:16:21.308Z,1011.61
2017-05-03T03:16:47.434Z,1011.61
2017-05-03T03:17:14.028Z,1011.62
2017-05-03T03:17:40.091Z,1011.62
2017-05-03T03:18:06.248Z,1011.6
2017-05-03T03:18:32.766Z,1011.61
2017-05-03T03:18:58.918Z,1011.62
2017-05-03T03:19:25.051Z,1011.64
2017-05-03T03:19:51.140Z,1011.66
2017-05-03T03:20:17.286Z,1011.64
2017-05-03T03:20:43.391Z,1011.64
2017-05-03T03:21:09.482Z,1011.65
2017-05-03T03:21:35.596Z,1011.66
2017-05-03T03:22:02.105Z,1011.65
2017-05-03T03:22:28.227Z,1011.61
2017-05-03T03:22:54.316Z,1011.62
2017-05-03T03:23:20.450Z,1011.6
2017-05-03T03:23:46.576Z,1011.57
2017-05-03T03:24:12.740Z,1011.56
2017-05-03T03:24:38.890Z,1011.57
2017-05-03T03:25:05.022Z,1011.56
2017-05-03T03:25:31.247Z,1011.55
2017-05-03T03:25:57.371Z,1011.56
2017-05-03T03:26:23.475Z,1011.55
2017-05-03T03:26:49.563Z,1011.57
2017-05-03T03:27:15.720Z,1011.53
2017-05-03T03:27:41.837Z,1011.6
2017-05-03T03:28:07.987Z,1011.57
2017-05-03T03:28:34.176Z,1011.61
2017-05-03T03:29:00.668Z,1011.59
2017-05-03T03:29:26.819Z,1011.6
2017-05-03T03:29:52.981Z,1011.61
2017-05-03T03:30:19.068Z,1011.6
2017-05-03T03:30:45.188Z,1011.62
2017-05-03T03:31:11.292Z,1011.57
2017-05-03T03:31:37.410Z,1011.61
2017-05-03T03:32:03.546Z,1011.58
2017-05-03T03:32:30.030Z,1011.58
2017-05-03T03:32:56.183Z,1011.62
2017-05-03T03:33:22.310Z,1011.62
2017-05-03T03:33:48.453Z,1011.64
2017-05-03T03:34:14.600Z,1011.63
2017-05-03T03:34:40.931Z,1011.62
2017-05-03T03:35:07.021Z,1011.6
2017-05-03T03:35:33.110Z,1011.64
2017-05-03T03:35:59.375Z,1011.63
2017-05-03T03:36:25.498Z,1011.61
2017-05-03T03:36:51.609Z,1011.65
2017-05-03T03:37:17.713Z,1011.59
2017-05-03T03:37:43.836Z,1011.57
2017-05-03T03:38:10.444Z,1011.58
2017-05-03T03:38:36.525Z,1011.6
2017-05-03T03:39:02.639Z,1011.57
2017-05-03T03:39:28.774Z,1011.6
2017-05-03T03:39:54.897Z,1011.59
2017-05-03T03:40:20.983Z,1011.61
2017-05-03T03:40:47.699Z,1011.57
2017-05-03T03:41:13.798Z,1011.58
2017-05-03T03:41:40.101Z,1011.6
2017-05-03T03:42:06.177Z,1011.61
2017-05-03T03:42:32.340Z,1011.62
2017-05-03T03:42:58.425Z,1011.64
2017-05-03T03:43:24.575Z,1011.64
2017-05-03T03:43:50.696Z,1011.66
2017-05-03T03:44:17.233Z,1011.65
2017-05-03T03:44:43.331Z,1011.66
2017-05-03T03:45:10.251Z,1011.69
2017-05-03T03:45:36.329Z,1011.7
2017-05-03T03:46:02.462Z,1011.73
2017-05-03T03:46:28.547Z,1011.72
2017-05-03T03:46:54.668Z,1011.74
2017-05-03T03:47:20.801Z,1011.73
2017-05-03T03:47:46.955Z,1011.71
2017-05-03T03:48:13.051Z,1011.75
2017-05-03T03:48:39.215Z,1011.71
2017-05-03T03:49:05.379Z,1011.73
2017-05-03T03:49:31.536Z,1011.72
2017-05-03T03:49:58.049Z,1011.73
2017-05-03T03:50:24.173Z,1011.72
2017-05-03T03:50:50.304Z,1011.74
2017-05-03T03:51:16.395Z,1011.72
2017-05-03T03:51:42.514Z,1011.75
2017-05-03T03:52:08.618Z,1011.76
2017-05-03T03:52:35.114Z,1011.78
2017-05-03T03:53:01.254Z,1011.75
2017-05-03T03:53:27.388Z,1011.73
2017-05-03T03:53:53.482Z,1011.77
2017-05-03T03:54:19.620Z,1011.76
2017-05-03T03:54:46.191Z,1011.78
2017-05-03T03:55:12.310Z,1011.75
2017-05-03T03:55:38.414Z,1011.75
2017-05-03T03:56:05.678Z,1011.78
2017-05-03T03:56:31.766Z,1011.77
2017-05-03T03:56:57.874Z,1011.77
2017-05-03T03:57:23.968Z,1011.75
2017-05-03T03:57:50.108Z,1011.75
2017-05-03T03:58:16.601Z,1011.77
2017-05-03T03:58:42.763Z,1011.75
2017-05-03T03:59:08.891Z,1011.73
2017-05-03T03:59:35.518Z,1011.76
2017-05-03T04:00:01.650Z,1011.77
2017-05-03T04:00:28.469Z,1011.77
2017-05-03T04:00:54.649Z,1011.75
2017-05-03T04:01:20.731Z,1011.76
2017-05-03T04:01:46.836Z,1011.8
2017-05-03T04:02:12.935Z,1011.76
2017-05-03T04:02:39.073Z,1011.79
2017-05-03T04:03:05.733Z,1011.75
2017-05-03T04:03:31.837Z,1011.78
2017-05-03T04:03:57.922Z,1011.82
2017-05-03T04:04:24.107Z,1011.83
2017-05-03T04:04:50.229Z,1011.81
2017-05-03T04:05:16.976Z,1011.84
2017-05-03T04:05:43.123Z,1011.85
2017-05-03T04:06:09.258Z,1011.85
2017-05-03T04:06:35.375Z,1011.89
2017-05-03T04:07:01.490Z,1011.9
2017-05-03T04:07:28.862Z,1011.87
2017-05-03T04:07:54.923Z,1011.9
2017-05-03T04:08:21.087Z,1011.91
2017-05-03T04:08:47.218Z,1011.92
2017-05-03T04:09:13.427Z,1011.92
2017-05-03T04:09:39.544Z,1011.92
2017-05-03T04:10:06.035Z,1011.9
2017-05-03T04:10:32.139Z,1011.88
2017-05-03T04:10:58.226Z,1011.94
2017-05-03T04:11:24.844Z,1011.92
2017-05-03T04:11:50.965Z,1011.9
2017-05-03T04:12:17.828Z,1011.9
2017-05-03T04:12:43.953Z,1011.92
2017-05-03T04:13:10.117Z,1011.92
2017-05-03T04:13:36.693Z,1011.89
2017-05-03T04:14:02.877Z,1011.92
2017-05-03T04:14:28.987Z,1011.89
2017-05-03T04:14:55.115Z,1011.9
2017-05-03T04:15:21.218Z,1011.9
2017-05-03T04:15:47.498Z,1011.91
2017-05-03T04:16:13.621Z,1011.87
2017-05-03T04:16:39.724Z,1011.87
2017-05-03T04:17:06.275Z,1011.93
2017-05-03T04:17:32.406Z,1011.89
2017-05-03T04:17:58.540Z,1011.9
2017-05-03T04:18:24.688Z,1011.92
2017-05-03T04:18:50.851Z,1011.9
2017-05-03T04:19:17.017Z,1011.89
2017-05-03T04:19:43.288Z,1011.94
2017-05-03T04:20:09.392Z,1011.89
2017-05-03T04:20:35.983Z,1011.91
2017-05-03T04:21:02.083Z,1011.88
2017-05-03T04:21:28.193Z,1011.91
2017-05-03T04:21:55.465Z,1011.9
2017-05-03T04:22:21.579Z,1011.88
2017-05-03T04:22:47.683Z,1011.9
2017-05-03T04:23:13.776Z,1011.92
2017-05-03T04:23:39.909Z,1011.87
2017-05-03T04:24:06.750Z,1011.94
2017-05-03T04:24:32.863Z,1011.92
2017-05-03T04:24:59.027Z,1011.93
2017-05-03T04:25:25.610Z,1011.96
2017-05-03T04:25:51.697Z,1011.95
2017-05-03T04:26:17.826Z,1011.92
2017-05-03T04:26:43.959Z,1011.91
2017-05-03T04:27:10.045Z,1011.93
2017-05-03T04:27:36.198Z,1011.91
2017-05-03T04:28:02.390Z,1011.93
2017-05-03T04:28:28.555Z,1011.94
2017-05-03T04:28:55.116Z,1011.9
2017-05-03T04:29:21.170Z,1011.94
2017-05-03T04:29:47.296Z,1011.92
2017-05-03T04:30:13.712Z,1011.91
2017-05-03T04:30:39.827Z,1011.93
2017-05-03T04:31:05.980Z,1011.95
2017-05-03T04:31:32.115Z,1011.98
2017-05-03T04:31:58.226Z,1011.93
2017-05-03T04:32:24.349Z,1011.97
2017-05-03T04:32:51.465Z,1011.98
2017-05-03T04:33:17.634Z,1012
2017-05-03T04:33:43.857Z,1012.03
2017-05-03T04:34:09.919Z,1012.01
2017-05-03T04:34:36.044Z,1012.02
2017-05-03T04:35:02.150Z,1012.04
2017-05-03T04:35:28.285Z,1012.07
2017-05-03T04:35:54.408Z,1012.09
2017-05-03T04:36:20.955Z,1012.1
2017-05-03T04:36:47.093Z,1012.09
2017-05-03T04:37:13.189Z,1012.15
2017-05-03T04:37:39.748Z,1012.14
2017-05-03T04:38:05.864Z,1012.12
2017-05-03T04:38:32.006Z,1012.12
2017-05-03T04:38:58.141Z,1012.13
2017-05-03T04:39:24.240Z,1012.13
2017-05-03T04:39:50.362Z,1012.14
2017-05-03T04:40:16.450Z,1012.16
2017-05-03T04:40:42.545Z,1012.16
2017-05-03T04:41:08.806Z,1012.17
2017-05-03T04:41:34.898Z,1012.16
2017-05-03T04:42:01.012Z,1012.19
2017-05-03T04:42:27.452Z,1012.16
2017-05-03T04:42:53.599Z,1012.2
2017-05-03T04:43:20.211Z,1012.21
2017-05-03T04:43:46.303Z,1012.22
2017-05-03T04:44:12.484Z,1012.22
2017-05-03T04:44:38.614Z,1012.22
2017-05-03T04:45:04.745Z,1012.22
2017-05-03T04:45:30.837Z,1012.24
2017-05-03T04:45:56.944Z,1012.27
2017-05-03T04:46:23.065Z,1012.27
2017-05-03T04:46:49.205Z,1012.27
2017-05-03T04:47:15.308Z,1012.29
2017-05-03T04:47:41.435Z,1012.27
2017-05-03T04:48:08.108Z,1012.28
2017-05-03T04:48:34.201Z,1012.28
2017-05-03T04:49:00.386Z,1012.28
2017-05-03T04:49:26.638Z,1012.29
2017-05-03T04:49:52.787Z,1012.29
2017-05-03T04:50:18.921Z,1012.29
2017-05-03T04:50:45.440Z,1012.32
2017-05-03T04:51:11.559Z,1012.33
2017-05-03T04:51:37.665Z,1012.3
2017-05-03T04:52:04.277Z,1012.33
2017-05-03T04:52:30.386Z,1012.33
2017-05-03T04:52:56.493Z,1012.36
2017-05-03T04:53:22.616Z,1012.34
2017-05-03T04:53:48.804Z,1012.29
2017-05-03T04:54:14.992Z,1012.3
2017-05-03T04:54:41.086Z,1012.32
2017-05-03T04:55:07.203Z,1012.35
2017-05-03T04:55:33.332Z,1012.34
2017-05-03T04:55:59.517Z,1012.35
2017-05-03T04:56:25.637Z,1012.34
2017-05-03T04:56:52.942Z,1012.33
2017-05-03T04:57:19.030Z,1012.33
2017-05-03T04:57:45.538Z,1012.36
2017-05-03T04:58:11.633Z,1012.34
2017-05-03T04:58:37.749Z,1012.35
2017-05-03T04:59:04.286Z,1012.34
2017-05-03T04:59:30.392Z,1012.34
2017-05-03T04:59:56.530Z,1012.39
2017-05-03T05:00:23.049Z,1012.41
2017-05-03T05:00:49.262Z,1012.4
2017-05-03T05:01:15.350Z,1012.39
2017-05-03T05:01:41.731Z,1012.39
2017-05-03T05:02:07.826Z,1012.39
2017-05-03T05:02:33.931Z,1012.39
2017-05-03T05:03:00.474Z,1012.38
2017-05-03T05:03:26.558Z,1012.39
2017-05-03T05:03:52.999Z,1012.36
2017-05-03T05:04:19.100Z,1012.39
2017-05-03T05:04:45.213Z,1012.39
2017-05-03T05:05:11.820Z,1012.37
2017-05-03T05:05:37.954Z,1012.36
2017-05-03T05:06:04.086Z,1012.41
2017-05-03T05:06:30.179Z,1012.37
2017-05-03T05:06:56.287Z,1012.38
2017-05-03T05:07:22.380Z,1012.36
2017-05-03T05:07:48.481Z,1012.37
2017-05-03T05:08:14.571Z,1012.34
2017-05-03T05:08:40.666Z,1012.38
2017-05-03T05:09:06.853Z,1012.39
2017-05-03T05:09:32.971Z,1012.4
2017-05-03T05:09:59.087Z,1012.38
2017-05-03T05:10:25.195Z,1012.41
2017-05-03T05:10:51.288Z,1012.4
2017-05-03T05:11:17.378Z,1012.4
2017-05-03T05:11:43.484Z,1012.41
2017-05-03T05:12:09.610Z,1012.42
2017-05-03T05:12:35.725Z,1012.41
2017-05-03T05:13:01.881Z,1012.47
2017-05-03T05:13:28.019Z,1012.48
2017-05-03T05:13:54.191Z,1012.49
2017-05-03T05:14:20.330Z,1012.43
2017-05-03T05:14:46.417Z,1012.46
2017-05-03T05:15:12.521Z,1012.45
2017-05-03T05:15:38.621Z,1012.47
2017-05-03T05:16:04.708Z,1012.47
2017-05-03T05:16:30.811Z,1012.51
2017-05-03T05:16:56.915Z,1012.5
2017-05-03T05:17:23.025Z,1012.53
2017-05-03T05:17:49.150Z,1012.47
2017-05-03T05:18:15.284Z,1012.53